createdAt,value
2019-05-26T00:00:49.274Z,95245.20
2019-05-26T00:05:50.824Z,95246.08
2019-05-26T00:10:52.135Z,95241.92
2019-05-26T00:15:53.484Z,95234.14
2019-05-26T00:20:54.797Z,95226.56
2019-05-26T00:25:56.119Z,95225.16
2019-05-26T00:30:57.433Z,95215.23
2019-05-26T00:35:58.826Z,95213.17
2019-05-26T00:41:00.132Z,95221.89
2019-05-26T00:46:01.466Z,95217.08
2019-05-26T00:51:02.785Z,95215.30
2019-05-26T00:56:04.137Z,95211.02
2019-05-26T01:01:05.520Z,95211.42
2019-05-26T01:06:06.910Z,95209.34
2019-05-26T01:11:08.329Z,95206.89
2019-05-26T01:16:09.662Z,95203.59
2019-05-26T01:21:11.017Z,95203.88
2019-05-26T01:26:12.431Z,95207.06
2019-05-26T01:31:13.850Z,95209.20
2019-05-26T01:36:15.245Z,95211.94
2019-05-26T01:41:16.533Z,95210.30
2019-05-26T01:46:18.617Z,95206.39
2019-05-26T01:51:20.668Z,95208.84
2019-05-26T01:56:22.010Z,95205.20
2019-05-26T02:01:23.325Z,95198.59
2019-05-26T02:06:24.624Z,95204.52
2019-05-26T02:11:25.945Z,95210.11
2019-05-26T02:16:27.270Z,95212.10
2019-05-26T02:21:28.623Z,95219.36
2019-05-26T02:26:29.965Z,95211.33
2019-05-26T02:31:32.018Z,95212.80
2019-05-26T02:36:33.346Z,95210.42
2019-05-26T02:41:34.703Z,95205.66
2019-05-26T02:46:36.103Z,95210.14
2019-05-26T02:51:37.459Z,95206.34
2019-05-26T02:56:38.848Z,95204.67
2019-05-26T03:02:01.287Z,95204.91
2019-05-26T03:06:42.247Z,95211.11
2019-05-26T03:11:43.624Z,95208.54
2019-05-26T03:16:44.974Z,95205.23
2019-05-26T03:21:46.344Z,95203.61
2019-05-26T03:26:47.672Z,95204.72
2019-05-26T03:31:49.074Z,95206.16
2019-05-26T03:36:50.402Z,95209.72
2019-05-26T03:41:52.860Z,95208.80
2019-05-26T03:46:54.554Z,95212.95
2019-05-26T03:51:56.629Z,95216.66
2019-05-26T03:56:57.949Z,95219.64
2019-05-26T04:01:59.297Z,95222.33
2019-05-26T04:07:00.624Z,95220.98
2019-05-26T04:12:02.698Z,95227.23
2019-05-26T04:17:04.766Z,95222.84
2019-05-26T04:22:06.834Z,95221.50
2019-05-26T04:27:08.292Z,95219.77
2019-05-26T04:32:09.635Z,95229.05
2019-05-26T04:37:11.018Z,95235.88
2019-05-26T04:42:12.321Z,95229.21
2019-05-26T04:47:14.385Z,95229.69
2019-05-26T04:52:15.718Z,95223.88
2019-05-26T04:57:17.049Z,95237.69
2019-05-26T05:02:18.386Z,95239.10
2019-05-26T05:07:19.710Z,95240.96
2019-05-26T05:12:21.057Z,95244.81
2019-05-26T05:17:22.536Z,95252.59
2019-05-26T05:22:23.866Z,95249.20
2019-05-26T05:27:25.208Z,95252.45
2019-05-26T05:32:27.237Z,95245.80
2019-05-26T05:37:28.581Z,95254.63
2019-05-26T05:42:29.875Z,95253.73
2019-05-26T05:47:31.272Z,95256.96
2019-05-26T05:52:32.581Z,95260.83
2019-05-26T05:57:33.917Z,95257.52
2019-05-26T06:02:35.269Z,95264.50
2019-05-26T06:07:36.597Z,95266.74
2019-05-26T06:12:37.923Z,95268.30
2019-05-26T06:17:39.230Z,95264.78
2019-05-26T06:22:40.583Z,95270.78
2019-05-26T06:27:41.949Z,95269.56
2019-05-26T06:32:43.349Z,95265.80
2019-05-26T06:37:44.682Z,95261.31
2019-05-26T06:42:46.034Z,95263.59
2019-05-26T06:47:47.349Z,95262.56
2019-05-26T06:52:49.483Z,95265.16
2019-05-26T06:57:50.797Z,95274.26
2019-05-26T07:03:00.782Z,95281.90
2019-05-26T07:08:02.159Z,95272.46
2019-05-26T07:13:03.569Z,95273.63
2019-05-26T07:18:04.916Z,95281.41
2019-05-26T07:23:07.595Z,95284.63
2019-05-26T07:28:07.652Z,95286.48
2019-05-26T07:33:09.066Z,95289.73
2019-05-26T07:38:11.213Z,95302.54
2019-05-26T07:43:12.557Z,95303.99
2019-05-26T07:48:14.042Z,95293.72
2019-05-26T07:53:15.407Z,95288.77
2019-05-26T07:58:16.713Z,95287.08
2019-05-26T08:03:18.029Z,95285.70
2019-05-26T08:08:19.361Z,95288.84
2019-05-26T08:13:20.682Z,95285.86
2019-05-26T08:18:22.040Z,95290.00
2019-05-26T08:23:23.374Z,95282.93
2019-05-26T08:28:24.717Z,95282.02
2019-05-26T08:33:26.037Z,95279.55
2019-05-26T08:38:27.415Z,95270.90
2019-05-26T08:43:28.712Z,95271.69
2019-05-26T08:48:30.108Z,95273.73
2019-05-26T08:53:31.505Z,95272.97
2019-05-26T08:58:32.849Z,95261.98
2019-05-26T09:03:34.159Z,95261.83
2019-05-26T09:08:35.466Z,95262.02
2019-05-26T09:13:36.786Z,95255.19
2019-05-26T09:18:38.104Z,95253.84
2019-05-26T09:23:39.427Z,95256.82
2019-05-26T09:28:40.805Z,95250.55
2019-05-26T09:33:42.139Z,95244.56
2019-05-26T09:38:43.460Z,95249.77
2019-05-26T09:43:44.831Z,95248.80
2019-05-26T09:48:46.155Z,95236.96
2019-05-26T09:54:00.887Z,95233.84
2019-05-26T09:58:48.899Z,95225.48
2019-05-26T10:03:50.244Z,95222.08
2019-05-26T10:08:51.624Z,95227.13
2019-05-26T10:13:52.970Z,95229.23
2019-05-26T10:18:54.309Z,95224.44
2019-05-26T10:23:55.644Z,95224.39
2019-05-26T10:29:00.368Z,95225.88
2019-05-26T10:33:58.326Z,95223.30
2019-05-26T10:38:59.662Z,95219.52
2019-05-26T10:44:01.025Z,95210.42
2019-05-26T10:49:03.109Z,95210.78
2019-05-26T10:54:04.477Z,95208.67
2019-05-26T10:59:06.616Z,95213.09
2019-05-26T11:04:07.946Z,95212.32
2019-05-26T11:09:09.245Z,95206.81
2019-05-26T11:14:10.555Z,95202.48
2019-05-26T11:19:12.617Z,95198.75
2019-05-26T11:24:13.968Z,95191.98
2019-05-26T11:29:15.293Z,95183.32
2019-05-26T11:34:16.629Z,95184.47
2019-05-26T11:39:18.695Z,95184.30
2019-05-26T11:44:19.994Z,95178.83
2019-05-26T11:49:21.376Z,95173.66
2019-05-26T11:54:22.695Z,95165.57
2019-05-26T11:59:24.053Z,95170.91
2019-05-26T12:04:25.386Z,95166.72
2019-05-26T12:09:26.778Z,95159.23
2019-05-26T12:14:34.726Z,95151.40
2019-05-26T12:19:29.532Z,95143.94
2019-05-26T12:24:30.829Z,95137.41
2019-05-26T12:29:32.151Z,95132.60
2019-05-26T12:34:33.522Z,95126.70
2019-05-26T12:39:34.926Z,95119.63
2019-05-26T12:44:48.632Z,95118.14
2019-05-26T12:49:37.699Z,95111.98
2019-05-26T12:54:39.078Z,95113.36
2019-05-26T12:59:41.144Z,95110.03
2019-05-26T13:04:42.476Z,95105.28
2019-05-26T13:09:43.807Z,95100.81
2019-05-26T13:14:45.141Z,95097.67
2019-05-26T13:19:46.461Z,95094.75
2019-05-26T13:24:47.749Z,95088.86
2019-05-26T13:29:49.142Z,95085.69
2019-05-26T13:34:50.506Z,95087.86
2019-05-26T13:39:51.812Z,95084.06
2019-05-26T13:44:53.177Z,95076.58
2019-05-26T13:49:54.517Z,95069.44
2019-05-26T13:54:56.579Z,95072.45
2019-05-26T13:59:57.912Z,95074.09
2019-05-26T14:04:59.236Z,95070.88
2019-05-26T14:10:00.613Z,95062.78
2019-05-26T14:15:01.993Z,95067.88
2019-05-26T14:20:03.358Z,95065.88
2019-05-26T14:25:04.734Z,95055.97
2019-05-26T14:30:06.170Z,95058.20
2019-05-26T14:35:07.550Z,95062.94
2019-05-26T14:40:08.837Z,95060.10
2019-05-26T14:45:10.159Z,95051.31
2019-05-26T14:50:11.521Z,95049.83
2019-05-26T14:55:12.853Z,95048.30
2019-05-26T15:00:14.187Z,95051.19
2019-05-26T15:05:15.496Z,95039.11
2019-05-26T15:10:17.573Z,95045.94
2019-05-26T15:15:19.245Z,95040.95
2019-05-26T15:20:20.578Z,95043.25
2019-05-26T15:25:21.906Z,95030.54
2019-05-26T15:30:23.281Z,95034.58
2019-05-26T15:40:39.264Z,95029.54
2019-05-26T15:45:51.917Z,95020.77
2019-05-26T15:51:05.819Z,95027.03
2019-05-26T15:56:10.639Z,95018.25
2019-05-26T16:01:17.649Z,95020.48
2019-05-26T16:06:20.668Z,95029.41
2019-05-26T16:11:22.516Z,95017.13
2019-05-26T16:16:40.095Z,95014.38
2019-05-26T16:21:29.018Z,95005.86
2019-05-26T16:26:33.959Z,95005.10
2019-05-26T16:31:36.651Z,94998.94
2019-05-26T16:36:50.729Z,94998.84
2019-05-26T16:41:53.669Z,94999.21
2019-05-26T16:46:57.201Z,94990.80
2019-05-26T16:51:59.880Z,94988.81
2019-05-26T16:57:03.720Z,94985.67
2019-05-26T17:02:06.456Z,94978.66
2019-05-26T17:07:08.570Z,94977.33
2019-05-26T17:12:10.560Z,94974.70
2019-05-26T17:17:16.739Z,94964.20
2019-05-26T17:22:22.502Z,94965.59
2019-05-26T17:27:25.010Z,94966.41
2019-05-26T17:32:27.897Z,94957.88
2019-05-26T17:37:29.615Z,94959.55
2019-05-26T17:42:32.335Z,94946.16
2019-05-26T17:47:34.384Z,94947.00
2019-05-26T17:52:35.780Z,94944.80
2019-05-26T17:57:45.225Z,94952.66
2019-05-26T18:03:04.216Z,94952.77
2019-05-26T18:08:06.274Z,94941.36
2019-05-26T18:13:07.582Z,94955.97
2019-05-26T18:18:16.517Z,94946.81
2019-05-26T18:23:17.871Z,94940.70
2019-05-26T18:28:19.185Z,94941.41
2019-05-26T18:33:20.531Z,94936.39
2019-05-26T18:38:21.849Z,94932.44
2019-05-26T18:43:23.950Z,94933.73
2019-05-26T18:48:34.569Z,94930.70
2019-05-26T18:53:36.047Z,94937.53
2019-05-26T18:58:37.462Z,94933.25
2019-05-26T19:03:39.553Z,94939.02
2019-05-26T19:08:40.911Z,94942.80
2019-05-26T19:13:42.356Z,94946.19
2019-05-26T19:18:44.425Z,94949.65
2019-05-26T19:23:46.321Z,94949.79
2019-05-26T19:28:48.519Z,94953.09
2019-05-26T19:33:51.258Z,94954.89
2019-05-26T19:38:53.205Z,94960.42
2019-05-26T19:43:54.508Z,94949.57
2019-05-26T19:48:55.836Z,94952.12
2019-05-26T19:53:57.237Z,94948.32
2019-05-26T19:58:58.613Z,94950.36
2019-05-26T20:04:00.029Z,94952.42
2019-05-26T20:09:01.401Z,94945.89
2019-05-26T20:14:02.838Z,94945.70
2019-05-26T20:19:04.927Z,94939.00
2019-05-26T20:24:07.051Z,94940.20
2019-05-26T20:29:08.377Z,94943.58
2019-05-26T20:34:10.483Z,94931.31
2019-05-26T20:39:11.827Z,94936.03
2019-05-26T20:44:13.191Z,94940.42
2019-05-26T20:49:14.517Z,94943.27
2019-05-26T20:54:15.853Z,94932.73
2019-05-26T20:59:17.322Z,94943.33
2019-05-26T21:04:18.841Z,94947.35
2019-05-26T21:09:20.962Z,94949.31
2019-05-26T21:14:22.333Z,94952.41
2019-05-26T21:19:23.668Z,94948.11
2019-05-26T21:24:25.774Z,94943.52
2019-05-26T21:29:27.150Z,94941.67
2019-05-26T21:34:28.513Z,94947.34
2019-05-26T21:39:29.881Z,94942.89
2019-05-26T21:44:31.211Z,94945.06
2019-05-26T21:49:33.241Z,94937.34
2019-05-26T21:54:34.564Z,94936.12
2019-05-26T21:59:35.901Z,94934.77
2019-05-26T22:04:37.205Z,94933.53
2019-05-26T22:09:38.534Z,94927.70
2019-05-26T22:14:40.586Z,94928.93
2019-05-26T22:19:41.897Z,94929.47
2019-05-26T22:24:43.220Z,94934.38
2019-05-26T22:29:44.625Z,94927.86
2019-05-26T22:34:46.659Z,94925.27
2019-05-26T22:39:47.995Z,94927.44
2019-05-26T22:44:49.310Z,94919.78
2019-05-26T22:49:51.352Z,94906.75
2019-05-26T22:54:52.695Z,94901.55
2019-05-26T22:59:54.041Z,94900.39
2019-05-26T23:04:57.458Z,94894.04
2019-05-26T23:09:58.757Z,94888.66
2019-05-26T23:15:00.144Z,94889.31
2019-05-26T23:20:01.457Z,94891.27
2019-05-26T23:25:02.802Z,94893.25
2019-05-26T23:30:04.842Z,94884.85
2019-05-26T23:35:06.166Z,94878.70
2019-05-26T23:40:10.927Z,94882.38
2019-05-26T23:45:12.258Z,94878.52
2019-05-26T23:50:13.604Z,94874.47
2019-05-26T23:55:15.669Z,94877.09
